This is the latest recevied weather packets stored in our database for station/object KM4FZA. If no packets are shown the sender has not sent any weather packets the latest 10 day(s).
| Time | Temp. | Humidity | Pressure | Rain* | Wind** | Luminosity | Snow |
|---|---|---|---|---|---|---|---|
| 1777139727 | 31.11° C | 34% | 1011.6 hPa | 0 mm | - | - | - |
| 1777131927 | 28.33° C | 42% | 1013.2 hPa | 0 mm | - | - | - |
| 1777130740 | 27.22° C | 44% | 1013.2 hPa | 0 mm | - | - | - |
| 1777128344 | 25.56° C | 48% | 1013.1 hPa | 0 mm | - | - | - |
| 1777124720 | 21.67° C | 58% | 1013.3 hPa | 0 mm | - | - | - |
| 1777122345 | 21.11° C | 58% | 1013.2 hPa | 0 mm | - | - | - |
| 1777121724 | 21.11° C | 59% | 1013.2 hPa | 0 mm | - | - | - |
| 1777120543 | 18.33° C | 67% | 1013.3 hPa | 0 mm | - | - | - |
| 1777114518 | 12.78° C | 87% | 1012.7 hPa | 0 mm | - | - | - |
| 1777112116 | 13.33° C | 84% | 1012.3 hPa | 0 mm | - | - | - |
| 1777109139 | 13.89° C | 80% | 1012.3 hPa | 0 mm | - | - | - |
| 1777098923 | 18.33° C | 60% | 1012.3 hPa | 0 mm | - | - | - |
| 1777098328 | 17.78° C | 60% | 1012.4 hPa | 0 mm | - | - | - |
| 1777090548 | 15° C | 75% | 1012.9 hPa | 0 mm | - | - | - |
| 1777088767 | 15.56° C | 77% | 1013 hPa | 0 mm | - | - | - |
| 1777088132 | 15.56° C | 77% | 1012.9 hPa | 0 mm | - | - | - |
| 1777080332 | 18.33° C | 68% | 1012.5 hPa | 0 mm | - | - | - |
| 1777079125 | 19.44° C | 67% | 1012.3 hPa | 0 mm | - | - | - |
| 1777076116 | 21.67° C | 55% | 1012 hPa | 0 mm | - | - | - |
| 1777075522 | 22.78° C | 53% | 1012.1 hPa | 0 mm | - | - | - |
| 1777072551 | 26.11° C | 43% | 1011.9 hPa | 0 mm | - | - | - |
| 1777068316 | 28.33° C | 32% | 1011.9 hPa | 0 mm | - | - | - |
| 1777067742 | 28.33° C | 32% | 1011.9 hPa | 0 mm | - | - | - |
| 1777067127 | 28.89° C | 29% | 1011.9 hPa | 0 mm | - | - | - |
| 1777065940 | 29.44° C | 27% | 1011.8 hPa | 0 mm | - | - | - |
* Rain latest hour (hover to see other rain measurements)
** Current wind speed in m/s (hover to see current wind gust speed)